createdAt,value
2022-10-04T00:00:50.539Z,7.13
2022-10-04T00:03:26.062Z,7.22
2022-10-04T00:05:56.693Z,7.18
2022-10-04T00:08:32.863Z,7.07
2022-10-04T00:11:06.951Z,7.09
2022-10-04T00:13:37.603Z,7.14
2022-10-04T00:16:05.963Z,7.16
2022-10-04T00:18:41.019Z,7.18
2022-10-04T00:21:09.878Z,7.06
2022-10-04T00:23:48.683Z,6.98
2022-10-04T00:26:57.812Z,7.06
2022-10-04T00:29:31.905Z,6.98
2022-10-04T00:32:27.408Z,6.91
2022-10-04T00:34:56.655Z,6.96
2022-10-04T00:37:26.081Z,7.00
2022-10-04T00:40:15.622Z,6.92
2022-10-04T00:42:50.539Z,7.01
2022-10-04T00:45:29.376Z,7.05
2022-10-04T00:48:05.278Z,6.93
2022-10-04T00:50:37.962Z,6.94
2022-10-04T00:53:17.628Z,6.82
2022-10-04T00:55:51.135Z,6.88
2022-10-04T00:58:24.533Z,6.76
2022-10-04T01:00:55.562Z,6.84
2022-10-04T01:03:30.386Z,6.92
2022-10-04T01:06:02.110Z,6.89
2022-10-04T01:08:33.344Z,7.03
2022-10-04T01:11:06.199Z,7.20
2022-10-04T01:13:40.147Z,7.40
2022-10-04T01:16:15.422Z,7.63
2022-10-04T01:18:43.578Z,7.64
2022-10-04T01:21:28.064Z,7.62
2022-10-04T01:24:17.749Z,7.82
2022-10-04T01:26:46.549Z,7.91
2022-10-04T01:29:18.167Z,7.97
2022-10-04T01:31:48.080Z,7.90
2022-10-04T01:34:18.115Z,7.99
2022-10-04T01:36:47.100Z,8.02
2022-10-04T01:39:17.988Z,7.94
2022-10-04T01:41:49.850Z,8.10
2022-10-04T01:44:26.111Z,8.01
2022-10-04T01:46:57.630Z,8.12
2022-10-04T01:49:30.182Z,8.10
2022-10-04T01:52:03.578Z,8.04
2022-10-04T01:54:35.661Z,8.02
2022-10-04T01:57:11.623Z,7.94
2022-10-04T01:59:45.917Z,7.98
2022-10-04T02:02:23.497Z,7.94
2022-10-04T02:04:54.899Z,7.89
2022-10-04T02:07:26.096Z,7.86
2022-10-04T02:09:59.623Z,7.87
2022-10-04T02:12:31.365Z,7.86
2022-10-04T02:15:02.186Z,7.79
2022-10-04T02:17:32.602Z,7.85
2022-10-04T02:20:02.312Z,7.75
2022-10-04T02:22:30.667Z,7.76
2022-10-04T02:25:00.281Z,7.79
2022-10-04T02:27:29.948Z,7.81
2022-10-04T02:30:02.500Z,7.76
2022-10-04T02:32:50.768Z,7.87
2022-10-04T02:35:20.992Z,7.89
2022-10-04T02:37:52.895Z,7.76
2022-10-04T02:40:30.075Z,7.87
2022-10-04T02:43:02.411Z,7.94
2022-10-04T02:45:41.025Z,7.94
2022-10-04T02:48:22.781Z,7.85
2022-10-04T02:50:54.842Z,7.93
2022-10-04T02:53:27.642Z,7.98
2022-10-04T02:55:57.230Z,7.93
2022-10-04T02:58:27.116Z,7.92
2022-10-04T03:00:58.702Z,7.97
2022-10-04T03:03:28.796Z,8.04
2022-10-04T03:06:01.820Z,7.99
2022-10-04T03:08:34.496Z,7.98
2022-10-04T03:11:05.318Z,7.93
2022-10-04T03:13:34.437Z,7.85
2022-10-04T03:16:02.879Z,7.86
2022-10-04T03:18:31.976Z,7.80
2022-10-04T03:21:03.375Z,7.80
2022-10-04T03:23:33.518Z,7.79
2022-10-04T03:26:10.917Z,7.84
2022-10-04T03:28:39.386Z,7.86
2022-10-04T03:31:07.593Z,7.82
2022-10-04T03:33:35.499Z,7.77
2022-10-04T03:36:03.773Z,7.85
2022-10-04T03:38:35.747Z,7.84
2022-10-04T03:41:05.176Z,7.79
2022-10-04T03:43:37.570Z,7.84
2022-10-04T03:46:07.251Z,7.86
2022-10-04T03:48:38.979Z,7.83
2022-10-04T03:51:11.887Z,7.81
2022-10-04T03:53:43.201Z,7.81
2022-10-04T03:56:15.436Z,7.78
2022-10-04T03:58:43.912Z,7.75
2022-10-04T04:01:26.255Z,7.75
2022-10-04T04:04:03.910Z,7.68
2022-10-04T04:06:41.356Z,7.71
2022-10-04T04:09:17.764Z,7.67
2022-10-04T04:11:50.376Z,7.71
2022-10-04T04:14:25.083Z,7.71
2022-10-04T04:16:54.229Z,7.72
2022-10-04T04:19:26.016Z,7.71
2022-10-04T04:21:56.932Z,7.69
2022-10-04T04:24:32.155Z,7.68
2022-10-04T04:27:05.110Z,7.80
2022-10-04T04:29:37.568Z,7.69
2022-10-04T04:32:09.837Z,7.68
2022-10-04T04:34:52.804Z,7.53
2022-10-04T04:37:21.417Z,7.46
2022-10-04T04:39:54.883Z,7.40
2022-10-04T04:42:31.830Z,7.39
2022-10-04T04:45:02.594Z,7.39
2022-10-04T04:47:34.750Z,7.38
2022-10-04T04:50:07.684Z,7.53
2022-10-04T04:52:37.073Z,7.55
2022-10-04T04:55:06.357Z,7.51
2022-10-04T04:57:35.418Z,7.55
2022-10-04T05:00:04.407Z,7.59
2022-10-04T05:02:35.416Z,7.56
2022-10-04T05:05:21.622Z,7.56
2022-10-04T05:07:49.717Z,7.61
2022-10-04T05:10:23.145Z,7.60
2022-10-04T05:12:52.265Z,7.55
2022-10-04T05:15:20.132Z,7.55
2022-10-04T05:17:47.929Z,7.56
2022-10-04T05:20:16.501Z,7.57
2022-10-04T05:22:49.074Z,7.62
2022-10-04T05:25:27.618Z,7.59
2022-10-04T05:27:57.217Z,7.65
2022-10-04T05:30:38.680Z,7.64
2022-10-04T05:33:08.388Z,7.61
2022-10-04T05:35:50.284Z,7.60
2022-10-04T05:38:27.606Z,7.65
2022-10-04T05:41:02.374Z,7.52
2022-10-04T05:43:38.427Z,7.61
2022-10-04T05:46:18.448Z,7.68
2022-10-04T05:48:49.338Z,7.77
2022-10-04T05:51:20.673Z,7.86
2022-10-04T05:53:49.924Z,7.94
2022-10-04T05:56:35.654Z,7.96
2022-10-04T05:59:16.311Z,7.97
2022-10-04T06:01:50.677Z,7.91
2022-10-04T06:04:31.190Z,7.92
2022-10-04T06:07:02.800Z,7.87
2022-10-04T06:09:44.763Z,7.94
2022-10-04T06:12:20.357Z,7.96
2022-10-04T06:15:02.357Z,7.92
2022-10-04T06:17:43.660Z,8.02
2022-10-04T06:20:26.909Z,8.03
2022-10-04T06:23:00.171Z,8.05
2022-10-04T06:25:32.702Z,8.07
2022-10-04T06:28:12.663Z,8.23
2022-10-04T06:31:01.456Z,8.23
2022-10-04T06:33:44.980Z,8.30
2022-10-04T06:36:31.984Z,8.34
2022-10-04T06:39:28.689Z,8.37
2022-10-04T06:42:25.074Z,8.50
2022-10-04T06:45:23.277Z,8.48
2022-10-04T06:48:22.698Z,8.71
2022-10-04T06:50:56.419Z,8.63
2022-10-04T06:53:36.282Z,8.68
2022-10-04T06:56:31.868Z,8.71
2022-10-04T06:59:25.083Z,8.64
2022-10-04T07:01:58.816Z,8.70
2022-10-04T07:04:56.174Z,8.85
2022-10-04T07:07:36.283Z,8.92
2022-10-04T07:10:23.233Z,9.00
2022-10-04T07:12:58.070Z,9.15
2022-10-04T07:15:30.284Z,9.20
2022-10-04T07:18:06.225Z,9.15
2022-10-04T07:20:37.621Z,9.29
2022-10-04T07:23:14.173Z,9.16
2022-10-04T07:25:46.648Z,9.26
2022-10-04T07:28:36.183Z,9.27
2022-10-04T07:31:10.672Z,9.23
2022-10-04T07:33:45.875Z,9.30
2022-10-04T07:36:22.020Z,9.27
2022-10-04T07:38:54.263Z,9.33
2022-10-04T07:41:26.429Z,9.54
2022-10-04T07:43:59.576Z,9.68
2022-10-04T07:46:41.061Z,9.75
2022-10-04T07:49:15.012Z,9.85
2022-10-04T07:52:04.337Z,9.94
2022-10-04T07:54:40.763Z,9.96
2022-10-04T07:57:15.851Z,10.47
2022-10-04T07:59:51.446Z,10.37
2022-10-04T08:02:31.736Z,10.28
2022-10-04T08:05:14.202Z,10.48
2022-10-04T08:07:57.683Z,10.23
2022-10-04T08:10:32.154Z,10.26
2022-10-04T08:13:07.380Z,10.43
2022-10-04T08:15:37.854Z,10.21
2022-10-04T08:18:25.881Z,10.37
2022-10-04T08:20:58.650Z,10.70
2022-10-04T08:23:42.578Z,10.81
2022-10-04T08:26:35.414Z,10.84
2022-10-04T08:29:43.165Z,10.87
2022-10-04T08:32:30.745Z,11.17
2022-10-04T08:35:28.659Z,10.94
2022-10-04T08:38:23.093Z,10.96
2022-10-04T08:41:31.574Z,11.07
2022-10-04T08:44:44.552Z,11.05
2022-10-04T08:47:44.285Z,11.32
2022-10-04T08:50:41.000Z,11.62
2022-10-04T08:53:52.582Z,11.76
2022-10-04T08:56:39.867Z,11.70
2022-10-04T08:59:46.631Z,11.65
2022-10-04T09:02:52.604Z,11.62
2022-10-04T09:05:35.136Z,11.85
2022-10-04T09:08:35.805Z,12.18
2022-10-04T09:11:30.504Z,12.25
2022-10-04T09:14:24.537Z,12.51
2022-10-04T09:17:06.421Z,12.63
2022-10-04T09:19:47.119Z,12.63
2022-10-04T09:22:20.014Z,12.66
2022-10-04T09:25:10.040Z,12.55
2022-10-04T09:28:00.337Z,12.63
2022-10-04T09:30:43.287Z,13.01
2022-10-04T09:33:30.659Z,13.00
2022-10-04T09:36:12.818Z,13.28
2022-10-04T09:39:28.476Z,13.28
2022-10-04T09:42:14.993Z,13.27
2022-10-04T09:45:20.298Z,13.12
2022-10-04T09:48:01.689Z,13.70
2022-10-04T09:51:07.994Z,14.02
2022-10-04T09:53:46.285Z,13.77
2022-10-04T09:56:33.219Z,14.15
2022-10-04T09:59:26.857Z,14.06
2022-10-04T10:02:28.986Z,14.00
2022-10-04T10:05:16.740Z,14.34
2022-10-04T10:07:53.582Z,14.38
2022-10-04T10:10:53.079Z,14.49
2022-10-04T10:13:42.833Z,14.91
2022-10-04T10:16:35.231Z,15.34
2022-10-04T10:19:28.454Z,14.88
2022-10-04T10:22:19.695Z,14.69
2022-10-04T10:25:08.761Z,14.54
2022-10-04T10:28:07.034Z,14.57
2022-10-04T10:30:52.618Z,14.50
2022-10-04T10:33:38.341Z,14.58
2022-10-04T10:36:35.958Z,14.64
2022-10-04T10:40:00.557Z,14.71
2022-10-04T10:42:51.578Z,14.85
2022-10-04T10:45:48.424Z,14.60
2022-10-04T10:48:24.146Z,14.36
2022-10-04T10:51:03.338Z,14.39
2022-10-04T10:54:05.266Z,14.38
2022-10-04T10:57:00.749Z,14.70
2022-10-04T11:00:11.729Z,14.72
2022-10-04T11:03:13.121Z,14.92
2022-10-04T11:06:19.951Z,15.30
2022-10-04T11:09:30.676Z,15.41
2022-10-04T11:12:31.968Z,15.78
2022-10-04T11:15:39.656Z,16.47
2022-10-04T11:18:47.563Z,16.19
2022-10-04T11:21:47.220Z,15.94
2022-10-04T11:25:00.678Z,15.86
2022-10-04T11:27:47.802Z,15.54
2022-10-04T11:30:25.013Z,15.39
2022-10-04T11:33:20.077Z,15.19
2022-10-04T11:36:02.850Z,15.52
2022-10-04T11:38:52.045Z,15.48
2022-10-04T11:41:33.553Z,15.50
2022-10-04T11:44:49.053Z,15.79
2022-10-04T11:47:40.425Z,15.67
2022-10-04T11:50:22.756Z,15.64
2022-10-04T11:53:14.312Z,16.12
2022-10-04T11:56:10.091Z,16.30
2022-10-04T11:58:53.916Z,16.19
2022-10-04T12:01:50.577Z,16.26
2022-10-04T12:04:36.276Z,16.38
2022-10-04T12:07:26.528Z,16.41
2022-10-04T12:10:02.947Z,16.42
2022-10-04T12:12:49.893Z,16.33
2022-10-04T12:15:38.440Z,16.77
2022-10-04T12:18:40.003Z,17.01
2022-10-04T12:21:38.796Z,16.77
2022-10-04T12:24:15.863Z,17.04
2022-10-04T12:27:17.192Z,17.25
2022-10-04T12:30:11.370Z,17.13
2022-10-04T12:32:57.538Z,17.15
2022-10-04T12:35:35.326Z,17.28
2022-10-04T12:38:37.295Z,17.49
2022-10-04T12:41:12.273Z,17.39
2022-10-04T12:43:55.329Z,17.61
2022-10-04T12:46:34.564Z,17.60
2022-10-04T12:49:21.734Z,17.72
2022-10-04T12:51:58.703Z,17.61
2022-10-04T12:54:39.550Z,17.76
2022-10-04T12:57:42.494Z,17.96
2022-10-04T13:00:18.643Z,17.94
2022-10-04T13:02:59.006Z,17.94
2022-10-04T13:05:31.970Z,18.05
2022-10-04T13:08:14.861Z,18.01
2022-10-04T13:10:56.131Z,17.97
2022-10-04T13:14:05.411Z,17.99
2022-10-04T13:19:41.671Z,18.01
2022-10-04T13:22:51.454Z,17.98
2022-10-04T13:25:27.626Z,18.20
2022-10-04T13:28:02.832Z,18.28
2022-10-04T13:30:39.321Z,18.37
2022-10-04T13:33:26.916Z,18.34
2022-10-04T13:36:02.935Z,18.70
2022-10-04T13:38:48.487Z,18.73
2022-10-04T13:41:28.623Z,18.36
2022-10-04T13:44:18.681Z,18.73
2022-10-04T13:47:05.667Z,18.79
2022-10-04T13:49:48.794Z,18.76
2022-10-04T13:52:48.797Z,18.55
2022-10-04T13:55:45.663Z,18.77
2022-10-04T13:58:29.559Z,18.73
2022-10-04T14:01:22.392Z,18.68
2022-10-04T14:04:05.536Z,18.71
2022-10-04T14:07:13.606Z,18.75
2022-10-04T14:10:18.040Z,18.68
2022-10-04T14:13:11.542Z,18.58
2022-10-04T14:16:07.595Z,18.64
2022-10-04T14:19:11.942Z,18.52
2022-10-04T14:22:12.685Z,18.65
2022-10-04T14:25:10.469Z,18.57
2022-10-04T14:27:56.523Z,18.56
2022-10-04T14:30:32.882Z,18.67
2022-10-04T14:33:32.586Z,18.78
2022-10-04T14:36:48.569Z,18.84
2022-10-04T14:39:36.448Z,18.72
2022-10-04T14:42:32.073Z,18.82
2022-10-04T14:45:17.800Z,18.72
2022-10-04T14:48:13.222Z,18.78
2022-10-04T14:50:58.121Z,18.86
2022-10-04T14:53:36.911Z,18.75
2022-10-04T14:56:31.204Z,18.63
2022-10-04T14:59:20.540Z,18.77
2022-10-04T15:02:14.036Z,20.65
2022-10-04T15:05:08.226Z,23.39
2022-10-04T15:07:39.388Z,26.94
2022-10-04T15:10:14.408Z,28.50
2022-10-04T15:15:50.686Z,27.16
2022-10-04T15:18:37.753Z,29.87
2022-10-04T15:21:21.192Z,28.46
2022-10-04T15:23:54.601Z,27.04
2022-10-04T15:26:49.848Z,27.31
2022-10-04T15:29:26.806Z,27.29
2022-10-04T15:32:07.186Z,24.39
2022-10-04T15:34:46.862Z,25.53
2022-10-04T15:37:25.266Z,25.47
2022-10-04T15:40:15.776Z,26.51
2022-10-04T15:43:01.004Z,24.48
2022-10-04T15:45:50.567Z,24.04
2022-10-04T15:48:38.253Z,22.72
2022-10-04T15:51:18.171Z,20.98
2022-10-04T15:53:55.940Z,20.09
2022-10-04T15:56:36.204Z,19.42
2022-10-04T15:59:43.471Z,19.10
2022-10-04T16:02:34.309Z,18.54
2022-10-04T16:05:15.595Z,18.66
2022-10-04T16:08:01.405Z,18.41
2022-10-04T16:10:33.229Z,18.31
2022-10-04T16:13:33.400Z,18.09
2022-10-04T16:16:32.253Z,18.14
2022-10-04T16:19:11.685Z,17.95
2022-10-04T16:21:51.694Z,17.76
2022-10-04T16:24:45.527Z,17.79
2022-10-04T16:27:50.467Z,17.37
2022-10-04T16:30:28.070Z,17.28
2022-10-04T16:33:11.752Z,17.26
2022-10-04T16:35:44.832Z,17.13
2022-10-04T16:38:25.937Z,17.05
2022-10-04T16:41:11.120Z,16.69
2022-10-04T16:43:49.625Z,16.50
2022-10-04T16:46:27.177Z,16.36
2022-10-04T16:48:57.819Z,16.11
2022-10-04T16:51:52.696Z,15.77
2022-10-04T16:54:43.896Z,15.54
2022-10-04T16:57:29.760Z,15.47
2022-10-04T17:00:00.549Z,15.28
2022-10-04T17:03:00.465Z,14.90
2022-10-04T17:05:58.805Z,14.73
2022-10-04T17:08:47.092Z,14.60
2022-10-04T17:11:44.241Z,14.31
2022-10-04T17:14:48.128Z,14.10
2022-10-04T17:17:24.415Z,13.96
2022-10-04T17:19:57.383Z,13.86
2022-10-04T17:22:39.285Z,13.71
2022-10-04T17:25:23.751Z,13.70
2022-10-04T17:27:54.076Z,13.70
2022-10-04T17:30:24.164Z,13.61
2022-10-04T17:33:32.149Z,13.48
2022-10-04T17:36:25.998Z,13.37
2022-10-04T17:39:09.047Z,13.22
2022-10-04T17:42:06.089Z,13.27
2022-10-04T17:44:55.355Z,13.11
2022-10-04T17:47:48.407Z,13.00
2022-10-04T17:50:39.780Z,12.88
2022-10-04T17:53:33.173Z,12.79
2022-10-04T17:56:03.962Z,12.72
2022-10-04T17:58:47.381Z,12.65
2022-10-04T18:01:25.633Z,12.49
2022-10-04T18:03:58.256Z,12.48
2022-10-04T18:06:33.395Z,12.44
2022-10-04T18:09:06.949Z,12.32
2022-10-04T18:11:47.297Z,12.24
2022-10-04T18:14:39.621Z,12.14
2022-10-04T18:17:13.073Z,12.04
2022-10-04T18:19:54.757Z,12.00
2022-10-04T18:22:26.367Z,11.97
2022-10-04T18:25:14.000Z,11.94
2022-10-04T18:27:53.733Z,11.98
2022-10-04T18:30:23.968Z,11.95
2022-10-04T18:32:55.778Z,11.91
2022-10-04T18:35:27.857Z,11.88
2022-10-04T18:37:58.088Z,11.78
2022-10-04T18:40:28.563Z,11.67
2022-10-04T18:42:58.151Z,11.58
2022-10-04T18:45:29.774Z,11.48
2022-10-04T18:48:00.212Z,11.43
2022-10-04T18:50:35.209Z,11.33
2022-10-04T18:53:24.027Z,11.29
2022-10-04T18:56:00.318Z,11.35
2022-10-04T18:59:02.321Z,11.43
2022-10-04T19:02:00.846Z,11.44
2022-10-04T19:04:39.038Z,11.29
2022-10-04T19:07:11.885Z,11.14
2022-10-04T19:10:02.133Z,11.10
2022-10-04T19:12:37.505Z,10.89
2022-10-04T19:15:20.556Z,10.97
2022-10-04T19:18:01.953Z,10.93
2022-10-04T19:20:40.689Z,10.94
2022-10-04T19:23:21.120Z,10.86
2022-10-04T19:26:26.327Z,10.84
2022-10-04T19:28:42.327Z,10.78
2022-10-04T19:31:20.504Z,10.78
2022-10-04T19:33:54.970Z,10.80
2022-10-04T19:36:36.283Z,10.75
2022-10-04T19:39:19.210Z,10.69
2022-10-04T19:41:53.590Z,10.67
2022-10-04T19:44:36.019Z,10.60
2022-10-04T19:47:08.719Z,10.51
2022-10-04T19:49:48.331Z,10.54
2022-10-04T19:52:24.242Z,10.49
2022-10-04T19:54:58.840Z,10.45
2022-10-04T19:57:38.091Z,10.46
2022-10-04T20:00:13.729Z,10.40
2022-10-04T20:02:48.273Z,10.48
2022-10-04T20:05:24.784Z,10.42
2022-10-04T20:08:01.375Z,10.44
2022-10-04T20:10:33.424Z,10.32
2022-10-04T20:13:23.441Z,10.24
2022-10-04T20:15:59.603Z,10.22
2022-10-04T20:18:57.735Z,10.22
2022-10-04T20:21:31.993Z,10.21
2022-10-04T20:24:01.739Z,10.20
2022-10-04T20:26:56.232Z,10.21
2022-10-04T20:30:03.837Z,10.15
2022-10-04T20:32:58.052Z,10.12
2022-10-04T20:36:09.546Z,10.11
2022-10-04T20:38:51.718Z,9.96
2022-10-04T20:42:03.381Z,9.90
2022-10-04T20:44:45.133Z,9.86
2022-10-04T20:47:40.322Z,9.78
2022-10-04T20:50:20.997Z,9.79
2022-10-04T20:52:52.656Z,9.81
2022-10-04T20:55:29.369Z,9.79
2022-10-04T20:58:00.367Z,9.68
2022-10-04T21:00:33.686Z,9.56
2022-10-04T21:03:16.075Z,9.62
2022-10-04T21:05:44.379Z,9.76
2022-10-04T21:08:26.405Z,9.80
2022-10-04T21:11:15.429Z,9.91
2022-10-04T21:13:57.868Z,9.81
2022-10-04T21:16:44.273Z,9.63
2022-10-04T21:19:42.809Z,9.48
2022-10-04T21:22:11.751Z,9.42
2022-10-04T21:24:41.515Z,9.50
2022-10-04T21:27:12.649Z,9.48
2022-10-04T21:29:41.025Z,9.55
2022-10-04T21:32:08.776Z,9.60
2022-10-04T21:34:53.934Z,9.52
2022-10-04T21:37:22.574Z,9.57
2022-10-04T21:39:50.392Z,9.60
2022-10-04T21:42:19.822Z,9.62
2022-10-04T21:44:47.500Z,9.50
2022-10-04T21:47:15.557Z,9.41
2022-10-04T21:49:43.521Z,9.33
2022-10-04T21:52:11.310Z,9.39
2022-10-04T21:54:39.021Z,9.58
2022-10-04T21:57:06.761Z,9.60
2022-10-04T21:59:35.832Z,9.49
2022-10-04T22:02:03.644Z,9.47
2022-10-04T22:04:31.367Z,9.34
2022-10-04T22:06:59.094Z,9.32
2022-10-04T22:09:26.951Z,9.30
2022-10-04T22:11:54.662Z,9.30
2022-10-04T22:14:22.384Z,9.30
2022-10-04T22:16:51.811Z,9.31
2022-10-04T22:19:19.729Z,9.34
2022-10-04T22:21:47.534Z,9.31
2022-10-04T22:24:18.662Z,9.13
2022-10-04T22:26:47.037Z,9.04
2022-10-04T22:29:16.380Z,8.91
2022-10-04T22:31:47.528Z,8.98
2022-10-04T22:34:19.982Z,9.16
2022-10-04T22:36:49.763Z,9.13
2022-10-04T22:39:19.522Z,9.05
2022-10-04T22:41:53.216Z,8.95
2022-10-04T22:44:23.297Z,8.82
2022-10-04T22:46:53.814Z,8.77
2022-10-04T22:49:24.691Z,8.81
2022-10-04T22:51:54.458Z,8.73
2022-10-04T22:54:24.944Z,8.78
2022-10-04T22:56:53.831Z,8.88
2022-10-04T22:59:26.668Z,8.79
2022-10-04T23:01:54.449Z,8.75
2022-10-04T23:04:25.849Z,8.77
2022-10-04T23:06:54.481Z,8.85
2022-10-04T23:09:22.231Z,8.83
2022-10-04T23:11:50.029Z,8.78
2022-10-04T23:14:17.710Z,8.83
2022-10-04T23:16:47.229Z,8.83
2022-10-04T23:19:18.662Z,8.78
2022-10-04T23:21:49.950Z,8.75
2022-10-04T23:24:19.626Z,8.66
2022-10-04T23:26:49.093Z,8.53
2022-10-04T23:29:22.287Z,8.42
2022-10-04T23:31:51.400Z,8.39
2022-10-04T23:34:22.634Z,8.38
2022-10-04T23:36:52.710Z,8.28
2022-10-04T23:39:25.877Z,8.25
2022-10-04T23:41:54.984Z,8.45
2022-10-04T23:44:25.034Z,8.37
2022-10-04T23:46:52.926Z,8.33
2022-10-04T23:49:22.517Z,8.39
2022-10-04T23:51:56.234Z,8.32
2022-10-04T23:54:24.520Z,8.29
2022-10-04T23:56:52.524Z,8.39
2022-10-04T23:59:24.620Z,8.28
